sensor_id;sensor_type;location;lat;lon;timestamp;P1;durP1;ratioP1;P2;durP2;ratioP2
63945;SDS011;50122;56.330;43.838;2023-06-22T00:01:21;11.15;;;5.28;;
63945;SDS011;50122;56.330;43.838;2023-06-22T00:03:51;11.02;;;4.60;;
63945;SDS011;50122;56.330;43.838;2023-06-22T00:06:18;12.63;;;4.78;;
63945;SDS011;50122;56.330;43.838;2023-06-22T00:08:45;10.40;;;4.68;;
63945;SDS011;50122;56.330;43.838;2023-06-22T00:11:12;9.27;;;4.00;;
63945;SDS011;50122;56.330;43.838;2023-06-22T00:13:39;8.68;;;4.20;;
63945;SDS011;50122;56.330;43.838;2023-06-22T00:16:06;9.73;;;4.90;;
63945;SDS011;50122;56.330;43.838;2023-06-22T00:18:34;8.85;;;4.05;;
63945;SDS011;50122;56.330;43.838;2023-06-22T00:21:03;7.93;;;4.40;;
63945;SDS011;50122;56.330;43.838;2023-06-22T00:23:33;9.20;;;4.47;;
63945;SDS011;50122;56.330;43.838;2023-06-22T00:26:00;12.05;;;4.80;;
63945;SDS011;50122;56.330;43.838;2023-06-22T00:28:27;7.47;;;3.95;;
63945;SDS011;50122;56.330;43.838;2023-06-22T00:30:55;9.23;;;4.53;;
63945;SDS011;50122;56.330;43.838;2023-06-22T00:33:22;12.75;;;4.40;;
63945;SDS011;50122;56.330;43.838;2023-06-22T00:35:49;15.93;;;4.47;;
63945;SDS011;50122;56.330;43.838;2023-06-22T00:38:19;11.63;;;4.50;;
63945;SDS011;50122;56.330;43.838;2023-06-22T00:40:47;12.25;;;8.05;;
63945;SDS011;50122;56.330;43.838;2023-06-22T00:43:14;17.90;;;13.25;;
63945;SDS011;50122;56.330;43.838;2023-06-22T00:45:41;18.42;;;14.55;;
63945;SDS011;50122;56.330;43.838;2023-06-22T00:48:10;18.13;;;13.60;;
63945;SDS011;50122;56.330;43.838;2023-06-22T00:50:41;19.17;;;14.60;;
63945;SDS011;50122;56.330;43.838;2023-06-22T00:53:09;16.67;;;14.35;;
63945;SDS011;50122;56.330;43.838;2023-06-22T00:55:37;18.30;;;13.85;;
63945;SDS011;50122;56.330;43.838;2023-06-22T00:58:09;15.35;;;11.98;;
63945;SDS011;50122;56.330;43.838;2023-06-22T01:00:37;14.93;;;13.05;;
63945;SDS011;50122;56.330;43.838;2023-06-22T01:03:05;15.02;;;13.40;;
63945;SDS011;50122;56.330;43.838;2023-06-22T01:05:37;16.67;;;14.25;;
63945;SDS011;50122;56.330;43.838;2023-06-22T01:16:30;11.43;;;8.88;;
63945;SDS011;50122;56.330;43.838;2023-06-22T01:19:00;11.75;;;8.48;;
63945;SDS011;50122;56.330;43.838;2023-06-22T01:21:33;14.30;;;7.43;;
63945;SDS011;50122;56.330;43.838;2023-06-22T01:24:17;9.00;;;4.57;;
63945;SDS011;50122;56.330;43.838;2023-06-22T01:27:04;7.43;;;3.95;;
63945;SDS011;50122;56.330;43.838;2023-06-22T01:29:52;8.30;;;4.57;;
63945;SDS011;50122;56.330;43.838;2023-06-22T01:32:28;6.75;;;4.15;;
63945;SDS011;50122;56.330;43.838;2023-06-22T01:34:59;7.70;;;3.75;;
63945;SDS011;50122;56.330;43.838;2023-06-22T01:37:30;6.90;;;3.65;;
63945;SDS011;50122;56.330;43.838;2023-06-22T01:40:00;6.72;;;3.70;;
63945;SDS011;50122;56.330;43.838;2023-06-22T01:42:30;6.60;;;3.25;;
63945;SDS011;50122;56.330;43.838;2023-06-22T01:44:58;7.32;;;3.20;;
63945;SDS011;50122;56.330;43.838;2023-06-22T01:47:26;6.15;;;3.50;;
63945;SDS011;50122;56.330;43.838;2023-06-22T01:49:54;10.52;;;4.40;;
63945;SDS011;50122;56.330;43.838;2023-06-22T01:52:22;11.30;;;4.03;;
63945;SDS011;50122;56.330;43.838;2023-06-22T01:54:50;8.60;;;3.63;;
63945;SDS011;50122;56.330;43.838;2023-06-22T01:57:16;6.10;;;3.38;;
63945;SDS011;50122;56.330;43.838;2023-06-22T01:59:47;8.27;;;3.35;;
63945;SDS011;50122;56.330;43.838;2023-06-22T02:02:19;5.75;;;3.05;;
63945;SDS011;50122;56.330;43.838;2023-06-22T02:04:57;5.32;;;2.90;;
63945;SDS011;50122;56.330;43.838;2023-06-22T02:07:30;6.23;;;2.83;;
63945;SDS011;50122;56.330;43.838;2023-06-22T02:10:00;7.07;;;3.08;;
63945;SDS011;50122;56.330;43.838;2023-06-22T02:12:29;6.20;;;3.00;;
63945;SDS011;50122;56.330;43.838;2023-06-22T02:14:58;7.30;;;3.00;;
63945;SDS011;50122;56.330;43.838;2023-06-22T02:17:27;5.00;;;2.65;;
63945;SDS011;50122;56.330;43.838;2023-06-22T02:19:56;6.05;;;3.15;;
63945;SDS011;50122;56.330;43.838;2023-06-22T02:22:22;9.25;;;2.60;;
63945;SDS011;50122;56.330;43.838;2023-06-22T02:24:50;5.38;;;2.70;;
63945;SDS011;50122;56.330;43.838;2023-06-22T02:27:17;8.60;;;2.97;;
63945;SDS011;50122;56.330;43.838;2023-06-22T02:29:44;9.57;;;3.10;;
63945;SDS011;50122;56.330;43.838;2023-06-22T02:32:11;4.82;;;2.67;;
63945;SDS011;50122;56.330;43.838;2023-06-22T02:34:37;6.53;;;2.70;;
63945;SDS011;50122;56.330;43.838;2023-06-22T02:37:04;4.50;;;2.70;;
63945;SDS011;50122;56.330;43.838;2023-06-22T02:39:31;4.65;;;2.47;;
63945;SDS011;50122;56.330;43.838;2023-06-22T02:41:58;6.05;;;2.70;;
63945;SDS011;50122;56.330;43.838;2023-06-22T02:44:25;8.05;;;2.72;;
63945;SDS011;50122;56.330;43.838;2023-06-22T02:46:51;7.55;;;2.95;;
63945;SDS011;50122;56.330;43.838;2023-06-22T02:49:18;7.25;;;3.13;;
63945;SDS011;50122;56.330;43.838;2023-06-22T02:51:45;5.18;;;2.70;;
63945;SDS011;50122;56.330;43.838;2023-06-22T02:54:13;6.13;;;2.75;;
63945;SDS011;50122;56.330;43.838;2023-06-22T02:56:40;6.38;;;2.60;;
63945;SDS011;50122;56.330;43.838;2023-06-22T02:59:14;6.40;;;2.83;;
63945;SDS011;50122;56.330;43.838;2023-06-22T03:01:42;5.63;;;2.50;;
63945;SDS011;50122;56.330;43.838;2023-06-22T03:04:09;6.30;;;2.80;;
63945;SDS011;50122;56.330;43.838;2023-06-22T03:06:36;4.43;;;2.47;;
63945;SDS011;50122;56.330;43.838;2023-06-22T03:09:04;5.63;;;2.65;;
63945;SDS011;50122;56.330;43.838;2023-06-22T03:11:32;5.70;;;3.03;;
63945;SDS011;50122;56.330;43.838;2023-06-22T03:14:00;7.28;;;2.83;;
63945;SDS011;50122;56.330;43.838;2023-06-22T03:16:28;7.72;;;2.92;;
63945;SDS011;50122;56.330;43.838;2023-06-22T03:18:55;6.25;;;2.70;;
63945;SDS011;50122;56.330;43.838;2023-06-22T03:21:23;4.70;;;2.50;;
63945;SDS011;50122;56.330;43.838;2023-06-22T03:23:50;7.18;;;2.70;;
63945;SDS011;50122;56.330;43.838;2023-06-22T03:26:17;5.00;;;2.78;;
63945;SDS011;50122;56.330;43.838;2023-06-22T03:31:27;8.23;;;3.78;;
63945;SDS011;50122;56.330;43.838;2023-06-22T03:33:54;8.70;;;3.47;;
63945;SDS011;50122;56.330;43.838;2023-06-22T03:36:21;7.55;;;3.35;;
63945;SDS011;50122;56.330;43.838;2023-06-22T03:38:55;6.32;;;3.63;;
63945;SDS011;50122;56.330;43.838;2023-06-22T03:41:22;6.60;;;2.80;;
63945;SDS011;50122;56.330;43.838;2023-06-22T03:43:49;8.15;;;3.33;;
63945;SDS011;50122;56.330;43.838;2023-06-22T03:46:16;6.97;;;3.00;;
63945;SDS011;50122;56.330;43.838;2023-06-22T03:48:47;4.80;;;2.60;;
63945;SDS011;50122;56.330;43.838;2023-06-22T03:51:14;7.50;;;2.97;;
63945;SDS011;50122;56.330;43.838;2023-06-22T03:53:41;5.95;;;2.80;;
63945;SDS011;50122;56.330;43.838;2023-06-22T03:56:10;7.93;;;2.90;;
63945;SDS011;50122;56.330;43.838;2023-06-22T03:58:36;7.25;;;2.63;;
63945;SDS011;50122;56.330;43.838;2023-06-22T04:01:09;7.72;;;2.97;;
63945;SDS011;50122;56.330;43.838;2023-06-22T04:03:38;6.07;;;2.80;;
63945;SDS011;50122;56.330;43.838;2023-06-22T04:06:05;12.68;;;3.05;;
63945;SDS011;50122;56.330;43.838;2023-06-22T04:08:38;6.25;;;2.80;;
63945;SDS011;50122;56.330;43.838;2023-06-22T04:11:04;8.45;;;2.60;;
63945;SDS011;50122;56.330;43.838;2023-06-22T04:13:31;6.63;;;2.55;;
63945;SDS011;50122;56.330;43.838;2023-06-22T04:15:58;9.82;;;2.97;;
63945;SDS011;50122;56.330;43.838;2023-06-22T04:18:24;6.47;;;2.70;;
63945;SDS011;50122;56.330;43.838;2023-06-22T04:20:51;5.93;;;2.67;;
63945;SDS011;50122;56.330;43.838;2023-06-22T04:23:19;4.70;;;2.60;;
63945;SDS011;50122;56.330;43.838;2023-06-22T04:25:45;4.93;;;2.60;;
63945;SDS011;50122;56.330;43.838;2023-06-22T04:28:12;7.45;;;2.83;;
63945;SDS011;50122;56.330;43.838;2023-06-22T04:30:39;6.20;;;2.83;;
63945;SDS011;50122;56.330;43.838;2023-06-22T04:33:15;4.63;;;2.45;;
63945;SDS011;50122;56.330;43.838;2023-06-22T04:35:46;5.72;;;2.58;;
63945;SDS011;50122;56.330;43.838;2023-06-22T04:38:13;3.88;;;2.17;;
63945;SDS011;50122;56.330;43.838;2023-06-22T04:40:40;3.90;;;2.28;;
63945;SDS011;50122;56.330;43.838;2023-06-22T04:43:06;5.03;;;2.45;;
63945;SDS011;50122;56.330;43.838;2023-06-22T04:45:33;4.53;;;2.35;;
63945;SDS011;50122;56.330;43.838;2023-06-22T04:48:01;4.32;;;2.20;;
63945;SDS011;50122;56.330;43.838;2023-06-22T18:20:38;15.82;;;6.13;;
63945;SDS011;50122;56.330;43.838;2023-06-22T18:23:06;10.50;;;5.55;;
63945;SDS011;50122;56.330;43.838;2023-06-22T18:25:36;19.33;;;6.40;;
63945;SDS011;50122;56.330;43.838;2023-06-22T18:28:07;9.30;;;5.55;;
63945;SDS011;50122;56.330;43.838;2023-06-22T18:30:36;14.07;;;6.05;;
63945;SDS011;50122;56.330;43.838;2023-06-22T18:33:03;30.55;;;6.38;;
63945;SDS011;50122;56.330;43.838;2023-06-22T18:35:29;21.08;;;6.82;;
63945;SDS011;50122;56.330;43.838;2023-06-22T18:37:57;36.85;;;6.72;;
63945;SDS011;50122;56.330;43.838;2023-06-22T18:40:25;22.90;;;6.82;;
63945;SDS011;50122;56.330;43.838;2023-06-22T18:42:56;14.13;;;6.05;;
63945;SDS011;50122;56.330;43.838;2023-06-22T18:45:28;15.27;;;6.15;;
63945;SDS011;50122;56.330;43.838;2023-06-22T18:50:35;9.45;;;5.85;;
63945;SDS011;50122;56.330;43.838;2023-06-22T18:53:14;10.68;;;5.97;;
63945;SDS011;50122;56.330;43.838;2023-06-22T18:55:50;11.60;;;5.40;;
63945;SDS011;50122;56.330;43.838;2023-06-22T18:58:22;15.10;;;5.82;;
63945;SDS011;50122;56.330;43.838;2023-06-22T19:00:52;12.55;;;5.40;;
63945;SDS011;50122;56.330;43.838;2023-06-22T19:03:41;15.15;;;5.70;;
63945;SDS011;50122;56.330;43.838;2023-06-22T19:06:08;11.18;;;5.80;;
63945;SDS011;50122;56.330;43.838;2023-06-22T19:09:11;11.02;;;5.72;;
63945;SDS011;50122;56.330;43.838;2023-06-22T19:11:39;9.00;;;5.32;;
63945;SDS011;50122;56.330;43.838;2023-06-22T19:14:07;11.60;;;5.43;;
63945;SDS011;50122;56.330;43.838;2023-06-22T19:17:18;10.20;;;5.60;;
63945;SDS011;50122;56.330;43.838;2023-06-22T19:20:17;11.25;;;5.90;;
63945;SDS011;50122;56.330;43.838;2023-06-22T19:22:55;12.73;;;6.22;;
63945;SDS011;50122;56.330;43.838;2023-06-22T19:25:27;11.18;;;6.22;;
63945;SDS011;50122;56.330;43.838;2023-06-22T19:28:01;18.52;;;6.35;;
63945;SDS011;50122;56.330;43.838;2023-06-22T19:30:29;19.08;;;7.20;;
63945;SDS011;50122;56.330;43.838;2023-06-22T19:33:00;22.75;;;9.77;;
63945;SDS011;50122;56.330;43.838;2023-06-22T19:35:32;19.38;;;8.18;;
63945;SDS011;50122;56.330;43.838;2023-06-22T19:38:20;16.67;;;7.68;;
63945;SDS011;50122;56.330;43.838;2023-06-22T19:40:46;17.80;;;9.45;;
63945;SDS011;50122;56.330;43.838;2023-06-22T19:43:13;15.07;;;7.95;;
63945;SDS011;50122;56.330;43.838;2023-06-22T19:45:41;17.48;;;8.05;;
63945;SDS011;50122;56.330;43.838;2023-06-22T19:48:12;14.75;;;8.43;;
63945;SDS011;50122;56.330;43.838;2023-06-22T19:50:41;16.08;;;7.78;;
63945;SDS011;50122;56.330;43.838;2023-06-22T19:53:11;13.48;;;7.88;;
63945;SDS011;50122;56.330;43.838;2023-06-22T19:55:44;16.15;;;7.47;;
63945;SDS011;50122;56.330;43.838;2023-06-22T19:58:17;13.90;;;7.50;;
63945;SDS011;50122;56.330;43.838;2023-06-22T20:00:45;13.43;;;7.28;;
63945;SDS011;50122;56.330;43.838;2023-06-22T20:03:26;14.10;;;7.38;;
63945;SDS011;50122;56.330;43.838;2023-06-22T20:05:54;16.75;;;7.43;;
63945;SDS011;50122;56.330;43.838;2023-06-22T20:08:43;14.45;;;7.03;;
63945;SDS011;50122;56.330;43.838;2023-06-22T20:11:23;14.07;;;7.88;;
63945;SDS011;50122;56.330;43.838;2023-06-22T20:13:52;18.80;;;8.10;;
63945;SDS011;50122;56.330;43.838;2023-06-22T20:16:21;19.05;;;7.68;;
63945;SDS011;50122;56.330;43.838;2023-06-22T20:18:49;18.83;;;8.35;;
63945;SDS011;50122;56.330;43.838;2023-06-22T20:21:40;23.88;;;9.10;;
63945;SDS011;50122;56.330;43.838;2023-06-22T20:24:09;16.30;;;8.85;;
63945;SDS011;50122;56.330;43.838;2023-06-22T20:26:39;19.58;;;9.18;;
63945;SDS011;50122;56.330;43.838;2023-06-22T20:32:09;22.20;;;9.20;;
63945;SDS011;50122;56.330;43.838;2023-06-22T20:37:08;17.33;;;8.85;;
63945;SDS011;50122;56.330;43.838;2023-06-22T20:39:34;14.13;;;8.65;;
63945;SDS011;50122;56.330;43.838;2023-06-22T20:42:02;13.00;;;7.70;;
63945;SDS011;50122;56.330;43.838;2023-06-22T20:44:33;13.30;;;7.90;;
63945;SDS011;50122;56.330;43.838;2023-06-22T20:47:00;15.45;;;8.18;;
63945;SDS011;50122;56.330;43.838;2023-06-22T20:49:30;13.40;;;8.20;;
63945;SDS011;50122;56.330;43.838;2023-06-22T20:51:57;11.40;;;7.97;;
63945;SDS011;50122;56.330;43.838;2023-06-22T20:54:23;14.05;;;8.07;;
63945;SDS011;50122;56.330;43.838;2023-06-22T20:56:51;11.60;;;7.82;;
63945;SDS011;50122;56.330;43.838;2023-06-22T20:59:18;15.45;;;8.20;;
63945;SDS011;50122;56.330;43.838;2023-06-22T21:01:45;11.20;;;7.43;;
63945;SDS011;50122;56.330;43.838;2023-06-22T21:04:13;15.15;;;8.65;;
63945;SDS011;50122;56.330;43.838;2023-06-22T21:06:40;12.57;;;8.35;;
63945;SDS011;50122;56.330;43.838;2023-06-22T21:09:07;14.98;;;8.30;;
63945;SDS011;50122;56.330;43.838;2023-06-22T21:11:34;14.40;;;8.48;;
63945;SDS011;50122;56.330;43.838;2023-06-22T21:14:00;15.73;;;8.38;;
63945;SDS011;50122;56.330;43.838;2023-06-22T21:16:44;15.85;;;8.77;;
63945;SDS011;50122;56.330;43.838;2023-06-22T21:19:11;15.70;;;8.07;;
63945;SDS011;50122;56.330;43.838;2023-06-22T21:21:39;12.77;;;7.57;;
63945;SDS011;50122;56.330;43.838;2023-06-22T21:24:06;15.02;;;8.35;;
63945;SDS011;50122;56.330;43.838;2023-06-22T21:26:33;12.13;;;8.20;;
63945;SDS011;50122;56.330;43.838;2023-06-22T21:29:00;14.25;;;8.20;;
63945;SDS011;50122;56.330;43.838;2023-06-22T21:31:26;15.57;;;9.02;;
63945;SDS011;50122;56.330;43.838;2023-06-22T21:33:53;15.07;;;8.15;;
63945;SDS011;50122;56.330;43.838;2023-06-22T21:36:20;13.85;;;9.00;;
63945;SDS011;50122;56.330;43.838;2023-06-22T21:38:51;12.35;;;8.18;;
63945;SDS011;50122;56.330;43.838;2023-06-22T21:41:19;13.35;;;8.55;;
63945;SDS011;50122;56.330;43.838;2023-06-22T21:43:46;11.60;;;8.48;;
63945;SDS011;50122;56.330;43.838;2023-06-22T21:46:14;15.07;;;8.27;;
63945;SDS011;50122;56.330;43.838;2023-06-22T21:48:41;13.70;;;8.43;;
63945;SDS011;50122;56.330;43.838;2023-06-22T21:51:09;11.18;;;7.90;;
63945;SDS011;50122;56.330;43.838;2023-06-22T21:53:36;11.82;;;7.90;;
63945;SDS011;50122;56.330;43.838;2023-06-22T21:56:05;21.02;;;8.32;;
63945;SDS011;50122;56.330;43.838;2023-06-22T21:58:33;12.63;;;8.13;;
63945;SDS011;50122;56.330;43.838;2023-06-22T22:01:00;12.68;;;8.63;;
63945;SDS011;50122;56.330;43.838;2023-06-22T22:03:27;14.68;;;9.68;;
63945;SDS011;50122;56.330;43.838;2023-06-22T22:05:55;13.82;;;8.60;;
63945;SDS011;50122;56.330;43.838;2023-06-22T22:08:22;13.68;;;8.27;;
63945;SDS011;50122;56.330;43.838;2023-06-22T22:10:49;16.85;;;8.75;;
63945;SDS011;50122;56.330;43.838;2023-06-22T22:13:16;15.23;;;8.73;;
63945;SDS011;50122;56.330;43.838;2023-06-22T22:15:45;17.63;;;9.10;;
63945;SDS011;50122;56.330;43.838;2023-06-22T22:18:15;14.90;;;9.38;;
63945;SDS011;50122;56.330;43.838;2023-06-22T22:20:42;16.35;;;8.98;;
63945;SDS011;50122;56.330;43.838;2023-06-22T22:23:09;14.02;;;8.40;;
63945;SDS011;50122;56.330;43.838;2023-06-22T22:25:35;25.23;;;9.43;;
63945;SDS011;50122;56.330;43.838;2023-06-22T22:28:02;18.83;;;9.43;;
63945;SDS011;50122;56.330;43.838;2023-06-22T22:30:29;20.38;;;9.25;;
63945;SDS011;50122;56.330;43.838;2023-06-22T22:32:56;14.60;;;8.70;;
63945;SDS011;50122;56.330;43.838;2023-06-22T22:35:22;15.10;;;8.73;;
63945;SDS011;50122;56.330;43.838;2023-06-22T22:37:49;15.52;;;9.38;;
63945;SDS011;50122;56.330;43.838;2023-06-22T22:40:16;14.85;;;9.57;;
63945;SDS011;50122;56.330;43.838;2023-06-22T22:42:42;16.38;;;9.63;;
63945;SDS011;50122;56.330;43.838;2023-06-22T22:45:09;15.48;;;9.68;;
63945;SDS011;50122;56.330;43.838;2023-06-22T22:47:36;15.00;;;9.05;;
63945;SDS011;50122;56.330;43.838;2023-06-22T22:50:03;15.45;;;9.93;;
63945;SDS011;50122;56.330;43.838;2023-06-22T22:52:30;14.30;;;9.98;;
63945;SDS011;50122;56.330;43.838;2023-06-22T22:54:57;17.10;;;10.25;;
63945;SDS011;50122;56.330;43.838;2023-06-22T22:57:24;15.98;;;9.60;;
63945;SDS011;50122;56.330;43.838;2023-06-22T22:59:50;13.93;;;9.35;;
63945;SDS011;50122;56.330;43.838;2023-06-22T23:02:17;14.73;;;8.82;;
63945;SDS011;50122;56.330;43.838;2023-06-22T23:04:44;17.95;;;10.05;;
63945;SDS011;50122;56.330;43.838;2023-06-22T23:07:10;19.25;;;9.10;;
63945;SDS011;50122;56.330;43.838;2023-06-22T23:09:37;14.65;;;9.43;;
63945;SDS011;50122;56.330;43.838;2023-06-22T23:12:04;21.73;;;9.50;;
63945;SDS011;50122;56.330;43.838;2023-06-22T23:14:31;18.15;;;10.05;;
63945;SDS011;50122;56.330;43.838;2023-06-22T23:16:58;15.20;;;9.57;;
63945;SDS011;50122;56.330;43.838;2023-06-22T23:19:26;17.27;;;10.13;;
63945;SDS011;50122;56.330;43.838;2023-06-22T23:21:53;15.60;;;10.07;;
63945;SDS011;50122;56.330;43.838;2023-06-22T23:24:20;18.20;;;9.60;;
63945;SDS011;50122;56.330;43.838;2023-06-22T23:26:47;18.95;;;10.40;;
63945;SDS011;50122;56.330;43.838;2023-06-22T23:29:17;18.83;;;10.38;;
63945;SDS011;50122;56.330;43.838;2023-06-22T23:31:44;21.02;;;9.20;;
63945;SDS011;50122;56.330;43.838;2023-06-22T23:34:11;18.10;;;9.80;;
63945;SDS011;50122;56.330;43.838;2023-06-22T23:36:38;15.55;;;9.93;;
63945;SDS011;50122;56.330;43.838;2023-06-22T23:39:05;13.38;;;9.63;;
63945;SDS011;50122;56.330;43.838;2023-06-22T23:41:33;14.77;;;8.68;;
63945;SDS011;50122;56.330;43.838;2023-06-22T23:44:00;16.35;;;9.82;;
63945;SDS011;50122;56.330;43.838;2023-06-22T23:46:27;15.80;;;9.88;;
63945;SDS011;50122;56.330;43.838;2023-06-22T23:48:57;16.48;;;9.15;;
63945;SDS011;50122;56.330;43.838;2023-06-22T23:51:24;15.60;;;10.10;;
63945;SDS011;50122;56.330;43.838;2023-06-22T23:53:55;14.95;;;9.13;;
63945;SDS011;50122;56.330;43.838;2023-06-22T23:56:22;16.27;;;9.00;;
63945;SDS011;50122;56.330;43.838;2023-06-22T23:58:50;16.40;;;9.38;;
